createdAt,value
2023-04-04T00:00:12.370Z,1.77
2023-04-04T04:00:08.877Z,2.60
2023-04-04T04:02:36.162Z,2.55
2023-04-04T04:05:04.201Z,3.10
2023-04-04T04:07:31.459Z,2.50
2023-04-04T04:09:59.247Z,2.53
2023-04-04T04:12:26.289Z,2.72
2023-04-04T04:14:53.179Z,2.67
2023-04-04T04:17:20.093Z,3.50
2023-04-04T04:19:46.877Z,2.60
2023-04-04T04:22:13.622Z,2.25
2023-04-04T04:24:40.559Z,3.25
2023-04-04T04:27:07.327Z,3.05
2023-04-04T04:29:34.120Z,3.63
2023-04-04T04:32:01.700Z,2.97
2023-04-04T04:34:28.453Z,3.60
2023-04-04T04:36:55.276Z,2.50
2023-04-04T04:39:22.020Z,3.33
2023-04-04T04:41:48.763Z,3.20
2023-04-04T04:44:15.948Z,3.10
2023-04-04T04:46:42.672Z,2.97
2023-04-04T04:49:09.410Z,3.58
2023-04-04T04:51:36.162Z,2.95
2023-04-04T04:54:02.816Z,4.75
2023-04-04T04:56:29.556Z,3.72
2023-04-04T04:58:56.306Z,3.17
2023-04-04T05:01:23.125Z,3.20
2023-04-04T05:03:51.970Z,4.25
2023-04-04T05:06:19.549Z,4.70
2023-04-04T05:08:46.199Z,3.58
2023-04-04T05:11:12.950Z,3.92
2023-04-04T05:13:40.200Z,3.53
2023-04-04T05:16:07.160Z,4.35
2023-04-04T05:18:33.890Z,3.58
2023-04-04T05:21:00.572Z,3.92
2023-04-04T05:23:27.320Z,4.85
2023-04-04T05:25:53.996Z,4.47
2023-04-04T05:28:21.106Z,6.03
2023-04-04T05:30:47.833Z,4.95
2023-04-04T05:33:14.651Z,4.65
2023-04-04T05:35:41.644Z,4.47
2023-04-04T05:38:08.563Z,3.88
2023-04-04T05:40:35.274Z,5.78
2023-04-04T05:43:04.255Z,4.45
2023-04-04T05:45:31.777Z,4.53
2023-04-04T05:47:58.597Z,4.30
2023-04-04T05:50:25.651Z,5.15
2023-04-04T05:52:55.180Z,3.72
2023-04-04T05:55:22.155Z,3.75
2023-04-04T05:57:50.552Z,6.15
2023-04-04T06:00:18.608Z,4.72
2023-04-04T06:02:45.511Z,4.53
2023-04-04T06:05:12.353Z,4.55
2023-04-04T06:07:39.026Z,4.30
2023-04-04T06:10:06.459Z,5.22
2023-04-04T06:12:33.161Z,4.68
2023-04-04T06:14:59.843Z,4.65
2023-04-04T06:17:26.760Z,4.03
2023-04-04T06:19:55.163Z,4.50
2023-04-04T06:22:21.945Z,4.22
2023-04-04T06:24:48.660Z,5.00
2023-04-04T06:27:15.830Z,4.07
2023-04-04T06:29:42.890Z,4.65
2023-04-04T06:32:09.621Z,4.60
2023-04-04T06:34:36.303Z,4.13
2023-04-04T06:37:03.534Z,3.92
2023-04-04T06:39:31.505Z,3.90
2023-04-04T06:41:58.272Z,5.10
2023-04-04T06:44:25.292Z,6.28
2023-04-04T06:46:52.072Z,5.32
2023-04-04T06:49:18.770Z,6.57
2023-04-04T06:51:46.494Z,6.38
2023-04-04T06:54:13.198Z,5.80
2023-04-04T06:56:39.915Z,5.03
2023-04-04T06:59:06.682Z,5.80
2023-04-04T07:01:34.200Z,6.90
2023-04-04T07:04:01.110Z,4.75
2023-04-04T07:06:29.691Z,3.53
2023-04-04T07:08:56.553Z,3.72
2023-04-04T07:11:24.168Z,3.72
2023-04-04T07:13:50.879Z,3.40
2023-04-04T07:16:17.557Z,3.78
2023-04-04T07:18:44.351Z,4.50
2023-04-04T07:21:10.996Z,3.28
2023-04-04T07:23:37.701Z,3.72
2023-04-04T07:26:04.454Z,3.45
2023-04-04T07:28:31.350Z,3.97
2023-04-04T07:31:04.167Z,3.33
2023-04-04T07:33:31.073Z,3.40
2023-04-04T07:35:57.943Z,3.53
2023-04-04T07:38:24.711Z,4.60
2023-04-04T07:40:51.438Z,4.32
2023-04-04T07:43:18.108Z,3.10
2023-04-04T07:45:44.834Z,3.78
2023-04-04T07:48:11.552Z,3.85
2023-04-04T07:50:39.020Z,3.65
2023-04-04T07:53:06.764Z,3.22
2023-04-04T07:55:33.592Z,2.78
2023-04-04T07:58:00.327Z,4.93
2023-04-04T08:00:32.880Z,4.63
2023-04-04T08:05:26.531Z,4.30
2023-04-04T08:07:53.293Z,4.32
2023-04-04T08:10:21.726Z,3.40
2023-04-04T08:12:49.055Z,3.70
2023-04-04T08:15:16.444Z,4.32
2023-04-04T08:17:45.872Z,3.03
2023-04-04T08:20:13.210Z,2.67
2023-04-04T08:22:42.097Z,3.67
2023-04-04T08:25:10.812Z,2.92
2023-04-04T08:27:40.166Z,2.47
2023-04-04T08:30:09.265Z,2.33
2023-04-04T08:32:35.964Z,3.78
2023-04-04T08:35:03.492Z,3.80
2023-04-04T08:37:30.983Z,3.45
2023-04-04T08:39:57.753Z,3.33
2023-04-04T08:42:28.390Z,2.83
2023-04-04T08:44:57.349Z,2.90
2023-04-04T08:47:25.224Z,3.17
2023-04-04T08:49:53.898Z,3.00
2023-04-04T08:52:25.053Z,2.60
2023-04-04T08:54:53.219Z,4.53
2023-04-04T08:57:20.093Z,3.38
2023-04-04T08:59:47.858Z,2.85
2023-04-04T09:02:19.809Z,2.83
2023-04-04T09:04:58.263Z,2.92
2023-04-04T09:07:31.146Z,2.65
2023-04-04T09:09:58.425Z,3.13
2023-04-04T09:12:26.234Z,2.80
2023-04-04T09:14:55.132Z,2.78
2023-04-04T09:17:21.822Z,3.50
2023-04-04T09:19:48.507Z,3.83
2023-04-04T09:22:17.272Z,3.13
2023-04-04T09:24:44.218Z,2.45
2023-04-04T09:27:12.202Z,3.00
2023-04-04T09:29:40.248Z,2.78
2023-04-04T09:32:14.830Z,2.38
2023-04-04T09:34:42.179Z,2.65
2023-04-04T09:37:09.099Z,4.47
2023-04-04T09:39:40.198Z,2.40
2023-04-04T09:42:10.114Z,2.47
2023-04-04T09:44:37.025Z,3.25
2023-04-04T09:47:30.591Z,2.97
2023-04-04T09:49:59.329Z,3.50
2023-04-04T09:52:26.806Z,2.92
2023-04-04T09:55:00.932Z,3.00
2023-04-04T09:57:35.922Z,2.50
2023-04-04T10:00:07.077Z,2.95
2023-04-04T10:02:33.975Z,2.15
2023-04-04T10:07:34.640Z,3.58
2023-04-04T10:10:04.924Z,3.05
2023-04-04T10:12:33.177Z,2.80
2023-04-04T10:15:00.577Z,4.65
2023-04-04T10:17:31.555Z,2.58
2023-04-04T10:20:04.939Z,2.75
2023-04-04T10:22:34.235Z,2.70
2023-04-04T10:25:01.010Z,2.58
2023-04-04T10:27:28.242Z,2.90
2023-04-04T10:29:55.205Z,3.28
2023-04-04T10:32:50.187Z,2.13
2023-04-04T10:35:22.522Z,3.70
2023-04-04T10:38:00.122Z,3.38
2023-04-04T10:40:33.244Z,2.55
2023-04-04T10:43:03.990Z,2.53
2023-04-04T10:45:33.188Z,2.47
2023-04-04T10:48:04.481Z,2.67
2023-04-04T10:50:33.220Z,3.13
2023-04-04T10:53:02.171Z,2.47
2023-04-04T10:55:29.537Z,2.58
2023-04-04T10:57:56.939Z,2.17
2023-04-04T11:00:24.341Z,2.10
2023-04-04T11:03:02.301Z,3.67
2023-04-04T11:05:37.600Z,2.80
2023-04-04T11:08:09.344Z,1.90
2023-04-04T11:10:39.171Z,2.40
2023-04-04T11:13:13.388Z,2.33
2023-04-04T11:16:07.743Z,1.92
2023-04-04T11:18:41.524Z,2.67
2023-04-04T11:21:19.874Z,2.03
2023-04-04T11:23:49.833Z,2.10
2023-04-04T11:26:35.943Z,2.85
2023-04-04T11:29:09.245Z,2.63
2023-04-04T11:31:45.087Z,2.10
2023-04-04T11:34:13.687Z,1.95
2023-04-04T11:36:41.640Z,2.40
2023-04-04T11:39:26.142Z,2.25
2023-04-04T11:42:13.593Z,2.47
2023-04-04T11:44:43.009Z,2.85
2023-04-04T11:47:13.659Z,2.20
2023-04-04T11:49:42.932Z,2.13
2023-04-04T11:52:12.020Z,2.58
2023-04-04T11:54:40.247Z,1.95
2023-04-04T11:57:11.579Z,1.90
2023-04-04T11:59:49.680Z,2.38
2023-04-04T12:02:21.882Z,1.65
2023-04-04T12:04:51.652Z,2.50
2023-04-04T12:07:18.471Z,2.83
2023-04-04T12:09:45.659Z,1.98
2023-04-04T12:12:14.500Z,2.17
2023-04-04T12:14:41.519Z,2.00
2023-04-04T12:17:08.694Z,1.73
2023-04-04T12:19:39.988Z,2.20
2023-04-04T12:22:08.491Z,1.80
2023-04-04T12:24:36.086Z,1.60
2023-04-04T12:27:03.606Z,3.08
2023-04-04T12:29:38.539Z,1.73
2023-04-04T12:32:06.668Z,2.38
2023-04-04T12:34:34.595Z,1.52
2023-04-04T12:37:02.578Z,1.38
2023-04-04T12:39:50.702Z,2.17
2023-04-04T12:42:22.832Z,2.63
2023-04-04T12:44:52.198Z,3.42
2023-04-04T12:47:21.158Z,2.25
2023-04-04T12:49:48.881Z,3.15
2023-04-04T12:52:39.680Z,1.92
2023-04-04T12:55:12.811Z,2.05
2023-04-04T12:57:40.152Z,2.53
2023-04-04T13:00:09.085Z,2.05
2023-04-04T13:02:37.662Z,2.55
2023-04-04T13:05:07.124Z,1.98
2023-04-04T13:07:42.888Z,2.83
2023-04-04T13:10:14.128Z,2.15
2023-04-04T13:13:01.536Z,2.85
2023-04-04T13:15:54.911Z,2.13
2023-04-04T13:18:24.878Z,2.38
2023-04-04T13:20:53.940Z,2.10
2023-04-04T13:23:21.664Z,2.95
2023-04-04T13:25:48.667Z,2.05
2023-04-04T13:28:15.705Z,2.75
2023-04-04T13:30:48.697Z,2.50
2023-04-04T13:33:17.054Z,2.78
2023-04-04T13:35:45.209Z,2.95
2023-04-04T13:38:12.715Z,2.25
2023-04-04T13:40:39.615Z,2.60
2023-04-04T13:43:06.639Z,2.67
2023-04-04T13:45:34.596Z,2.90
2023-04-04T13:48:02.178Z,3.28
2023-04-04T13:50:30.773Z,3.05
2023-04-04T13:52:57.580Z,3.03
2023-04-04T13:55:24.387Z,3.03
2023-04-04T13:57:51.116Z,2.75
2023-04-04T14:00:18.280Z,2.97
2023-04-04T14:02:45.260Z,2.83
2023-04-04T14:05:12.558Z,2.63
2023-04-04T14:07:39.417Z,2.55
2023-04-04T14:10:07.168Z,3.33
2023-04-04T14:12:34.694Z,2.55
2023-04-04T14:15:01.616Z,2.40
2023-04-04T14:17:28.491Z,2.70
2023-04-04T14:19:55.557Z,3.00
2023-04-04T14:22:22.523Z,2.55
2023-04-04T14:24:49.351Z,2.65
2023-04-04T14:27:16.166Z,2.72
2023-04-04T14:29:43.012Z,3.00
2023-04-04T14:32:10.879Z,2.85
2023-04-04T14:34:38.007Z,3.25
2023-04-04T14:37:05.084Z,3.20
2023-04-04T14:39:33.286Z,3.60
2023-04-04T14:42:00.512Z,2.58
2023-04-04T14:44:27.625Z,2.90
2023-04-04T14:46:54.618Z,2.70
2023-04-04T14:49:21.462Z,4.15
2023-04-04T14:51:48.390Z,3.35
2023-04-04T14:54:15.478Z,3.30
2023-04-04T14:56:43.099Z,3.22
2023-04-04T14:59:09.956Z,3.72
2023-04-04T15:01:37.244Z,3.40
2023-04-04T15:04:04.365Z,3.40
2023-04-04T15:06:36.034Z,3.30
2023-04-04T15:09:07.969Z,3.65
2023-04-04T15:11:35.939Z,3.55
2023-04-04T15:14:03.097Z,3.30
2023-04-04T15:16:33.026Z,3.80
2023-04-04T15:19:00.722Z,3.58
2023-04-04T15:21:28.377Z,3.53
2023-04-04T15:23:55.495Z,3.28
2023-04-04T15:26:22.895Z,3.95
2023-04-04T15:28:49.848Z,3.50
2023-04-04T15:31:17.034Z,3.80
2023-04-04T15:33:43.885Z,4.10
2023-04-04T15:36:11.001Z,3.63
2023-04-04T15:38:37.903Z,2.97
2023-04-04T15:41:08.909Z,3.88
2023-04-04T15:43:38.793Z,3.95
2023-04-04T15:46:05.849Z,3.97
2023-04-04T15:48:34.273Z,4.15
2023-04-04T15:51:03.047Z,4.05
2023-04-04T15:53:30.767Z,3.42
2023-04-04T15:55:58.206Z,3.85
2023-04-04T15:58:26.029Z,3.35
2023-04-04T16:00:53.166Z,3.63
2023-04-04T16:03:20.516Z,3.78
2023-04-04T16:05:48.167Z,4.25
2023-04-04T16:08:14.921Z,4.43
2023-04-04T16:10:43.978Z,4.40
2023-04-04T16:13:11.231Z,3.28
2023-04-04T16:15:38.325Z,4.13
2023-04-04T16:18:05.516Z,3.45
2023-04-04T16:20:32.427Z,3.60
2023-04-04T16:22:59.178Z,3.15
2023-04-04T16:25:26.228Z,3.40
2023-04-04T16:27:52.970Z,4.57
2023-04-04T16:30:19.771Z,4.25
2023-04-04T16:32:47.074Z,3.92
2023-04-04T16:35:14.106Z,4.45
2023-04-04T16:37:40.972Z,3.85
2023-04-04T16:40:08.293Z,4.07
2023-04-04T16:42:35.023Z,3.63
2023-04-04T16:45:01.821Z,3.33
2023-04-04T16:47:28.558Z,3.10
2023-04-04T16:49:55.380Z,3.55
2023-04-04T16:52:22.069Z,3.55
2023-04-04T16:54:48.796Z,3.10
2023-04-04T16:57:15.568Z,2.97
2023-04-04T16:59:42.266Z,3.00
2023-04-04T17:02:09.714Z,3.78
2023-04-04T17:04:39.638Z,3.40
2023-04-04T17:07:08.587Z,3.40
2023-04-04T17:09:35.864Z,2.83
2023-04-04T17:12:03.348Z,3.00
2023-04-04T17:14:31.425Z,2.70
2023-04-04T17:17:00.790Z,3.00
2023-04-04T17:19:31.500Z,3.65
2023-04-04T17:21:58.741Z,3.00
2023-04-04T17:24:26.995Z,2.85
2023-04-04T17:26:54.522Z,2.95
2023-04-04T17:29:26.535Z,3.00
2023-04-04T17:31:57.588Z,3.88
2023-04-04T17:34:24.734Z,3.00
2023-04-04T17:36:52.597Z,3.35
2023-04-04T17:39:19.589Z,3.20
2023-04-04T17:41:47.790Z,3.00
2023-04-04T17:44:15.831Z,3.50
2023-04-04T17:46:42.851Z,2.85
2023-04-04T17:49:09.780Z,2.92
2023-04-04T17:51:37.429Z,2.42
2023-04-04T17:54:05.192Z,2.92
2023-04-04T17:56:32.143Z,2.55
2023-04-04T17:58:58.963Z,2.58
2023-04-04T18:01:27.897Z,3.15
2023-04-04T18:03:54.976Z,2.80
2023-04-04T18:06:22.066Z,2.35
2023-04-04T18:08:48.854Z,1.98
2023-04-04T18:11:16.309Z,1.85
2023-04-04T18:13:44.096Z,3.22
2023-04-04T18:16:10.797Z,2.55
2023-04-04T18:18:39.259Z,2.25
2023-04-04T18:21:09.372Z,2.70
2023-04-04T18:23:36.446Z,2.05
2023-04-04T18:26:03.393Z,2.47
2023-04-04T18:28:30.518Z,2.35
2023-04-04T18:30:58.511Z,2.63
2023-04-04T18:33:26.495Z,1.65
2023-04-04T18:35:54.125Z,3.28
2023-04-04T18:38:20.899Z,3.00
2023-04-04T18:40:47.634Z,2.38
2023-04-04T18:43:14.527Z,2.67
2023-04-04T18:45:41.625Z,1.98
2023-04-04T18:48:09.019Z,2.35
2023-04-04T18:50:36.037Z,1.80
2023-04-04T18:53:02.822Z,2.00
2023-04-04T18:55:29.688Z,1.73
2023-04-04T18:57:57.484Z,2.63
2023-04-04T19:00:24.870Z,3.40
2023-04-04T19:02:51.943Z,1.98
2023-04-04T19:05:24.135Z,2.03
2023-04-04T19:07:56.110Z,1.70
2023-04-04T19:10:22.887Z,2.60
2023-04-04T19:12:50.110Z,3.42
2023-04-04T19:15:17.332Z,2.00
2023-04-04T19:17:44.187Z,2.42
2023-04-04T19:20:12.444Z,2.45
2023-04-04T19:22:39.158Z,3.17
2023-04-04T19:25:06.261Z,2.75
2023-04-04T19:27:33.119Z,1.95
2023-04-04T19:29:59.850Z,3.17
2023-04-04T19:32:28.411Z,3.22
2023-04-04T19:34:56.363Z,2.47
2023-04-04T19:37:24.710Z,2.60
2023-04-04T19:39:51.709Z,2.10
2023-04-04T19:42:26.324Z,3.28
2023-04-04T19:44:53.407Z,3.08
2023-04-04T19:47:21.019Z,2.45
2023-04-04T19:49:53.383Z,2.75
2023-04-04T19:52:24.101Z,2.30
2023-04-04T19:54:51.020Z,2.78
2023-04-04T19:57:19.590Z,2.30
2023-04-04T19:59:55.753Z,3.42
2023-04-04T20:02:32.922Z,3.85
2023-04-04T20:05:00.763Z,3.35
2023-04-04T20:07:30.791Z,2.50
2023-04-04T20:09:57.780Z,2.53
2023-04-04T20:12:25.677Z,2.55
2023-04-04T20:14:58.852Z,2.70
2023-04-04T20:17:25.658Z,3.40
2023-04-04T20:19:52.851Z,3.58
2023-04-04T20:22:19.819Z,3.85
2023-04-04T20:24:47.194Z,4.07
2023-04-04T20:27:24.272Z,2.92
2023-04-04T20:29:53.471Z,3.30
2023-04-04T20:32:20.350Z,4.70
2023-04-04T20:34:49.771Z,5.15
2023-04-04T20:37:21.809Z,4.13
2023-04-04T20:39:53.784Z,3.35
2023-04-04T20:42:29.099Z,4.53
2023-04-04T20:45:00.670Z,3.47
2023-04-04T20:47:43.987Z,3.63
2023-04-04T20:50:17.058Z,2.97
2023-04-04T20:52:49.431Z,3.03
2023-04-04T20:55:18.655Z,4.07
2023-04-04T20:57:54.146Z,4.13
2023-04-04T21:00:30.198Z,3.70
2023-04-04T21:02:58.789Z,3.67
2023-04-04T21:05:29.222Z,4.28
2023-04-04T21:07:56.214Z,3.38
2023-04-04T21:10:28.974Z,3.67
2023-04-04T21:12:59.280Z,4.95
2023-04-04T21:15:30.727Z,4.63
2023-04-04T21:18:22.273Z,4.22
2023-04-04T21:21:09.978Z,3.30
2023-04-04T21:23:39.541Z,3.70
2023-04-04T21:26:08.743Z,3.05
2023-04-04T21:28:42.561Z,3.08
2023-04-04T21:31:18.214Z,2.75
2023-04-04T21:33:47.067Z,3.28
2023-04-04T21:36:28.464Z,4.07
2023-04-04T21:39:00.294Z,3.75
2023-04-04T21:41:31.768Z,3.42
2023-04-04T21:44:00.494Z,3.25
2023-04-04T21:46:29.214Z,3.15
2023-04-04T21:48:56.337Z,3.30
2023-04-04T21:51:23.070Z,3.75
2023-04-04T21:53:50.688Z,3.20
2023-04-04T21:56:18.423Z,3.25
2023-04-04T21:58:45.853Z,3.38
2023-04-04T22:01:12.854Z,3.45
2023-04-04T22:03:40.651Z,3.50
2023-04-04T22:06:07.801Z,3.38
2023-04-04T22:08:34.706Z,3.72
2023-04-04T22:11:03.284Z,3.53
2023-04-04T22:13:33.390Z,3.28
2023-04-04T22:16:02.029Z,3.13
2023-04-04T22:18:30.821Z,3.55
2023-04-04T22:21:02.918Z,4.18
2023-04-04T22:23:35.208Z,3.28
2023-04-04T22:26:20.281Z,3.30
2023-04-04T22:28:48.023Z,3.47
2023-04-04T22:31:17.553Z,2.85
2023-04-04T22:33:44.292Z,3.35
2023-04-04T22:36:11.036Z,4.00
2023-04-04T22:38:39.308Z,2.78
2023-04-04T22:41:06.439Z,3.55
2023-04-04T22:43:33.284Z,3.25
2023-04-04T22:46:00.010Z,3.05
2023-04-04T22:48:26.697Z,2.60
2023-04-04T22:50:56.192Z,4.07
2023-04-04T22:53:26.737Z,4.10
2023-04-04T22:55:58.242Z,4.00
2023-04-04T22:58:25.129Z,3.78
2023-04-04T23:00:51.964Z,2.92
2023-04-04T23:03:18.797Z,3.95
2023-04-04T23:05:45.601Z,3.65
2023-04-04T23:08:12.377Z,2.97
2023-04-04T23:10:39.312Z,3.65
2023-04-04T23:13:06.183Z,3.10
2023-04-04T23:15:35.355Z,3.13
2023-04-04T23:18:02.545Z,3.55
2023-04-04T23:20:32.671Z,4.13
2023-04-04T23:22:59.694Z,2.58
2023-04-04T23:25:26.513Z,3.15
2023-04-04T23:27:53.917Z,3.92
2023-04-04T23:30:21.334Z,3.45
2023-04-04T23:32:48.157Z,5.40
2023-04-04T23:35:15.007Z,3.28
2023-04-04T23:37:41.666Z,4.38
2023-04-04T23:40:08.954Z,3.47
2023-04-04T23:42:35.746Z,3.33
2023-04-04T23:45:02.478Z,4.00
2023-04-04T23:47:29.373Z,3.80
2023-04-04T23:49:59.434Z,3.75
2023-04-04T23:52:26.220Z,3.75
2023-04-04T23:54:52.961Z,4.40
2023-04-04T23:57:19.669Z,3.17
2023-04-04T23:59:46.373Z,3.35
